Details From LGAV - Athens Eleftherios Venizelos
To LGKV - Kavala Megas Alexandros Intl.
Flight Number -
Tags generated
Created
Modified
Stats Distance 183 nm / 339 km
Max Altitude 20,200 ft / 6,157 m
Waypoints 3
Social Downloads 0
Likes 0
Share

Download

Looking for another format? Having issues loading an existing format? Contact us
Advertisement - Login to hide

Notes

Basic altitude profile: - Ascent Rate: 2500ft/min - Ascent Speed: 250kts - Cruise Altitude: 35000ft - Cruise Speed: 420kts - Descent Rate: 1500ft/min - Descent Speed: 250kts Options: - Use NATs: yes - Use PACOTS: yes - Use low airways: yes - Use high airways: yes

Route

LGAV ESOPO LGKV

ID Type Via Altitude (ft/m) Position (lat/lon) Dist (leg/tot) Name
O LGAV APT - 0 / 0 37.93670 / 23.94450 - / 0 nm Athens Eleftherios Venizelos
ESOPO FIX - 20,200 / 6,157 39.33940 / 24.50220 88 / 88 nm
O LGKV APT - 0 / 0 40.91400 / 24.61960 94 / 182 nm Kavala Megas Alexandros Intl.

Altitude Profile

Advertisement - Login to hide

Weather


0- 5 10 15 20 25 30 35+ Temperature / °C

Clouds and Precipitation
Forecast for 2024-04-15 18:00 UTC. Updated 3 months ago

Ground ~20,000 ft ~40,000 ft Winds

LGAV

Details ICAO LGAV (ATH)
Name Athens Eleftherios Venizelos
Region Greece
Timezone Europe/Athens (UTC+3.0)
Stats Elevation 308 ft / 94 m (AMSL)
Location 37.936700° 23.944500°
Runways 2
Magnetic Variation 5.126° E

METAR

LGAV 212150Z 25003KT CAVOK 26/13 Q1008 NOSIG

Decode

TAF

TAF TAF LGAV 211700Z 2118/2218 VRB05KT 9999 FEW030 TEMPO 2206/2216 08010KT

Decode

Departure Runways

ID Width Length Bearing (true/mag) Surface Threshold Overrun Markings Lighting
03L 151 ft / 46 m 12,478 ft / 3,803 m 36.86° / 31.73° ASPHALT 984 ft / 300 m 394 ft / 120 m PREC-APP CENTERLINE EDGE THRESHOLD ALSF-II TDZ REIL-OMNI
03R 151 ft / 46 m 13,135 ft / 4,004 m 36.87° / 31.75° ASPHALT 984 ft / 300 m 394 ft / 120 m PREC-APP CENTERLINE EDGE THRESHOLD ALSF-II TDZ REIL-OMNI
21L 151 ft / 46 m 13,135 ft / 4,004 m 216.89° / 211.76° ASPHALT 984 ft / 300 m 394 ft / 120 m PREC-APP CENTERLINE EDGE THRESHOLD ALSF-II TDZ REIL-OMNI
21R 151 ft / 46 m 12,478 ft / 3,803 m 216.87° / 211.75° ASPHALT 984 ft / 300 m 394 ft / 120 m PREC-APP CENTERLINE EDGE THRESHOLD ALSF-II TDZ REIL-OMNI

LGKV

Details ICAO LGKV (KVA)
Name Kavala Megas Alexandros Intl.
Region Greece
Timezone Europe/Athens (UTC+3.0)
Stats Elevation 17 ft / 5 m (AMSL)
Location 40.914000° 24.619600°
Runways 1
Magnetic Variation 5.560° E

METAR

Not found

TAF

TAF LGKV 211700Z 2118/2218 VRB03KT 9999 FEW025 PROB30 TEMPO 2212/2217 5000 TSRA FEW018CB SCT020 BKN060

Decode

Destination Runways

ID Width Length Bearing (true/mag) Surface Threshold Overrun Markings Lighting
05R 148 ft / 45 m 9,851 ft / 3,003 m 55.29° / 49.73° ASPHALT 0 ft / 0 m 932 ft / 284 m PREC-APP EDGE THRESHOLD SALS
23L 148 ft / 45 m 9,851 ft / 3,003 m 235.31° / 229.75° ASPHALT 0 ft / 0 m 932 ft / 284 m PREC-APP EDGE THRESHOLD

Popular Alternatives